sensor_id;sensor_type;location;lat;lon;timestamp;temperature;humidity
29453;DHT22;16424;50.956;5.320;2022-09-09T00:04:41;17.50;99.90
29453;DHT22;16424;50.956;5.320;2022-09-09T00:07:26;17.50;99.90
29453;DHT22;16424;50.956;5.320;2022-09-09T00:21:15;17.50;99.90
29453;DHT22;16424;50.956;5.320;2022-09-09T00:23:48;17.40;99.90
29453;DHT22;16424;50.956;5.320;2022-09-09T00:31:38;17.30;99.90
29453;DHT22;16424;50.956;5.320;2022-09-09T00:34:17;17.30;99.90
29453;DHT22;16424;50.956;5.320;2022-09-09T00:36:43;17.30;99.90
29453;DHT22;16424;50.956;5.320;2022-09-09T00:39:53;17.20;99.90
29453;DHT22;16424;50.956;5.320;2022-09-09T00:42:20;17.20;99.90
29453;DHT22;16424;50.956;5.320;2022-09-09T00:50:13;17.20;99.90
29453;DHT22;16424;50.956;5.320;2022-09-09T00:53:38;17.20;99.90
29453;DHT22;16424;50.956;5.320;2022-09-09T00:56:16;17.20;99.90
29453;DHT22;16424;50.956;5.320;2022-09-09T00:59:00;17.20;99.90
29453;DHT22;16424;50.956;5.320;2022-09-09T01:01:29;17.10;99.90
29453;DHT22;16424;50.956;5.320;2022-09-09T01:03:56;17.10;99.90
29453;DHT22;16424;50.956;5.320;2022-09-09T01:06:36;17.10;99.90
29453;DHT22;16424;50.956;5.320;2022-09-09T01:09:13;17.10;99.90
29453;DHT22;16424;50.956;5.320;2022-09-09T01:12:16;17.00;99.90
29453;DHT22;16424;50.956;5.320;2022-09-09T01:14:47;17.00;99.90
29453;DHT22;16424;50.956;5.320;2022-09-09T01:17:44;17.00;99.90
29453;DHT22;16424;50.956;5.320;2022-09-09T01:20:16;17.00;99.90
29453;DHT22;16424;50.956;5.320;2022-09-09T01:23:00;17.00;99.90
29453;DHT22;16424;50.956;5.320;2022-09-09T01:26:03;16.90;99.90
29453;DHT22;16424;50.956;5.320;2022-09-09T01:28:31;16.90;99.90
29453;DHT22;16424;50.956;5.320;2022-09-09T01:30:59;17.00;99.90
29453;DHT22;16424;50.956;5.320;2022-09-09T01:33:26;17.00;99.90
29453;DHT22;16424;50.956;5.320;2022-09-09T01:38:31;17.00;99.90
29453;DHT22;16424;50.956;5.320;2022-09-09T01:40:58;17.00;99.90
29453;DHT22;16424;50.956;5.320;2022-09-09T01:43:24;17.00;99.90
29453;DHT22;16424;50.956;5.320;2022-09-09T01:45:54;16.90;99.90
29453;DHT22;16424;50.956;5.320;2022-09-09T01:48:23;16.80;99.90
29453;DHT22;16424;50.956;5.320;2022-09-09T01:50:49;16.80;99.90
29453;DHT22;16424;50.956;5.320;2022-09-09T01:53:16;16.80;99.90
29453;DHT22;16424;50.956;5.320;2022-09-09T01:55:46;16.70;99.90
29453;DHT22;16424;50.956;5.320;2022-09-09T01:58:34;16.70;99.90
29453;DHT22;16424;50.956;5.320;2022-09-09T02:03:53;16.70;99.90
29453;DHT22;16424;50.956;5.320;2022-09-09T02:08:48;16.70;99.90
29453;DHT22;16424;50.956;5.320;2022-09-09T02:11:17;16.70;99.90
29453;DHT22;16424;50.956;5.320;2022-09-09T02:13:46;16.80;99.90
29453;DHT22;16424;50.956;5.320;2022-09-09T02:21:21;16.70;99.90
29453;DHT22;16424;50.956;5.320;2022-09-09T02:23:49;16.80;99.90
29453;DHT22;16424;50.956;5.320;2022-09-09T02:26:18;16.90;99.90
29453;DHT22;16424;50.956;5.320;2022-09-09T02:28:49;16.90;99.90
29453;DHT22;16424;50.956;5.320;2022-09-09T02:31:18;16.90;99.90
29453;DHT22;16424;50.956;5.320;2022-09-09T02:33:50;16.90;99.90
29453;DHT22;16424;50.956;5.320;2022-09-09T02:36:19;17.00;99.90
29453;DHT22;16424;50.956;5.320;2022-09-09T02:38:48;17.00;99.90
29453;DHT22;16424;50.956;5.320;2022-09-09T02:41:18;17.00;99.90
29453;DHT22;16424;50.956;5.320;2022-09-09T02:43:45;17.00;99.90
29453;DHT22;16424;50.956;5.320;2022-09-09T02:48:59;17.00;99.90
29453;DHT22;16424;50.956;5.320;2022-09-09T02:52:07;17.00;99.90
29453;DHT22;16424;50.956;5.320;2022-09-09T02:54:33;17.00;99.90
29453;DHT22;16424;50.956;5.320;2022-09-09T02:59:39;16.90;99.90
29453;DHT22;16424;50.956;5.320;2022-09-09T03:02:07;16.90;99.90
29453;DHT22;16424;50.956;5.320;2022-09-09T03:04:32;16.80;99.90
29453;DHT22;16424;50.956;5.320;2022-09-09T03:06:59;16.60;99.90
29453;DHT22;16424;50.956;5.320;2022-09-09T03:09:25;16.50;99.90
29453;DHT22;16424;50.956;5.320;2022-09-09T03:11:53;16.50;99.90
29453;DHT22;16424;50.956;5.320;2022-09-09T03:14:20;16.50;99.90
29453;DHT22;16424;50.956;5.320;2022-09-09T03:16:47;16.60;99.90
29453;DHT22;16424;50.956;5.320;2022-09-09T03:19:13;16.50;99.90
29453;DHT22;16424;50.956;5.320;2022-09-09T03:21:39;16.50;99.90
29453;DHT22;16424;50.956;5.320;2022-09-09T03:24:05;16.60;99.90
29453;DHT22;16424;50.956;5.320;2022-09-09T03:26:32;16.60;99.90
29453;DHT22;16424;50.956;5.320;2022-09-09T03:28:57;16.50;99.90
29453;DHT22;16424;50.956;5.320;2022-09-09T03:31:26;16.50;99.90
29453;DHT22;16424;50.956;5.320;2022-09-09T03:33:56;16.50;99.90
29453;DHT22;16424;50.956;5.320;2022-09-09T03:36:24;16.50;99.90
29453;DHT22;16424;50.956;5.320;2022-09-09T03:38:49;16.50;99.90
29453;DHT22;16424;50.956;5.320;2022-09-09T03:41:16;16.60;99.90
29453;DHT22;16424;50.956;5.320;2022-09-09T03:43:42;16.60;99.90
29453;DHT22;16424;50.956;5.320;2022-09-09T03:46:08;16.60;99.90
29453;DHT22;16424;50.956;5.320;2022-09-09T03:48:33;16.60;99.90
29453;DHT22;16424;50.956;5.320;2022-09-09T03:50:59;16.70;99.90
29453;DHT22;16424;50.956;5.320;2022-09-09T03:53:27;16.60;99.90
29453;DHT22;16424;50.956;5.320;2022-09-09T03:55:55;16.60;99.90
29453;DHT22;16424;50.956;5.320;2022-09-09T03:58:24;16.50;99.90
29453;DHT22;16424;50.956;5.320;2022-09-09T04:01:01;16.60;99.90
29453;DHT22;16424;50.956;5.320;2022-09-09T04:03:27;16.50;99.90
29453;DHT22;16424;50.956;5.320;2022-09-09T04:05:54;16.50;99.90
29453;DHT22;16424;50.956;5.320;2022-09-09T04:08:20;16.50;99.90
29453;DHT22;16424;50.956;5.320;2022-09-09T04:10:49;16.60;99.90
29453;DHT22;16424;50.956;5.320;2022-09-09T04:13:16;16.70;99.90
29453;DHT22;16424;50.956;5.320;2022-09-09T04:15:43;16.60;99.90
29453;DHT22;16424;50.956;5.320;2022-09-09T04:18:11;16.50;99.90
29453;DHT22;16424;50.956;5.320;2022-09-09T04:20:37;16.50;99.90
29453;DHT22;16424;50.956;5.320;2022-09-09T04:23:04;16.60;99.90
29453;DHT22;16424;50.956;5.320;2022-09-09T04:25:30;16.70;99.90
29453;DHT22;16424;50.956;5.320;2022-09-09T04:27:57;16.70;99.90
29453;DHT22;16424;50.956;5.320;2022-09-09T04:30:24;16.60;99.90
29453;DHT22;16424;50.956;5.320;2022-09-09T04:32:52;16.60;99.90
29453;DHT22;16424;50.956;5.320;2022-09-09T04:35:18;16.50;99.90
29453;DHT22;16424;50.956;5.320;2022-09-09T04:37:45;16.50;99.90
29453;DHT22;16424;50.956;5.320;2022-09-09T04:40:11;16.40;99.90
29453;DHT22;16424;50.956;5.320;2022-09-09T04:42:37;16.40;99.90
29453;DHT22;16424;50.956;5.320;2022-09-09T04:45:03;16.30;99.90
29453;DHT22;16424;50.956;5.320;2022-09-09T04:47:29;16.30;99.90
29453;DHT22;16424;50.956;5.320;2022-09-09T04:49:54;16.30;99.90
29453;DHT22;16424;50.956;5.320;2022-09-09T04:52:21;16.30;99.90
29453;DHT22;16424;50.956;5.320;2022-09-09T04:54:46;16.40;99.90
29453;DHT22;16424;50.956;5.320;2022-09-09T04:57:13;16.30;99.90
29453;DHT22;16424;50.956;5.320;2022-09-09T04:59:39;16.40;99.90
29453;DHT22;16424;50.956;5.320;2022-09-09T05:02:07;16.40;99.90
29453;DHT22;16424;50.956;5.320;2022-09-09T05:04:33;16.40;99.90
29453;DHT22;16424;50.956;5.320;2022-09-09T05:06:59;16.30;99.90
29453;DHT22;16424;50.956;5.320;2022-09-09T05:09:24;16.20;99.90
29453;DHT22;16424;50.956;5.320;2022-09-09T05:11:50;16.30;99.90
29453;DHT22;16424;50.956;5.320;2022-09-09T05:14:16;16.20;99.90
29453;DHT22;16424;50.956;5.320;2022-09-09T05:16:44;16.20;99.90
29453;DHT22;16424;50.956;5.320;2022-09-09T05:19:10;16.10;99.90
29453;DHT22;16424;50.956;5.320;2022-09-09T05:21:35;16.10;99.90
29453;DHT22;16424;50.956;5.320;2022-09-09T05:24:01;16.20;99.90
29453;DHT22;16424;50.956;5.320;2022-09-09T05:26:27;16.20;99.90
29453;DHT22;16424;50.956;5.320;2022-09-09T05:28:54;16.30;99.90
29453;DHT22;16424;50.956;5.320;2022-09-09T05:31:21;16.20;99.90
29453;DHT22;16424;50.956;5.320;2022-09-09T05:33:47;16.20;99.90
29453;DHT22;16424;50.956;5.320;2022-09-09T05:36:16;16.30;99.90
29453;DHT22;16424;50.956;5.320;2022-09-09T05:38:43;16.40;99.90
29453;DHT22;16424;50.956;5.320;2022-09-09T05:41:10;16.40;99.90
29453;DHT22;16424;50.956;5.320;2022-09-09T05:43:36;16.40;99.90
29453;DHT22;16424;50.956;5.320;2022-09-09T05:46:05;16.50;99.90
29453;DHT22;16424;50.956;5.320;2022-09-09T05:48:33;16.50;99.90
29453;DHT22;16424;50.956;5.320;2022-09-09T05:51:00;16.50;99.90
29453;DHT22;16424;50.956;5.320;2022-09-09T05:53:26;16.50;99.90
29453;DHT22;16424;50.956;5.320;2022-09-09T05:56:05;16.60;99.90
29453;DHT22;16424;50.956;5.320;2022-09-09T05:58:32;16.60;99.90
29453;DHT22;16424;50.956;5.320;2022-09-09T06:01:09;16.70;99.90
29453;DHT22;16424;50.956;5.320;2022-09-09T06:03:39;16.80;99.90
29453;DHT22;16424;50.956;5.320;2022-09-09T06:06:07;16.80;99.90
29453;DHT22;16424;50.956;5.320;2022-09-09T06:08:34;16.80;99.90
29453;DHT22;16424;50.956;5.320;2022-09-09T06:13:35;17.00;99.90
29453;DHT22;16424;50.956;5.320;2022-09-09T06:16:03;17.10;99.90
29453;DHT22;16424;50.956;5.320;2022-09-09T06:18:29;17.10;99.90
29453;DHT22;16424;50.956;5.320;2022-09-09T06:20:57;17.00;99.90
29453;DHT22;16424;50.956;5.320;2022-09-09T06:23:23;17.10;99.90
29453;DHT22;16424;50.956;5.320;2022-09-09T06:25:49;17.20;99.90
29453;DHT22;16424;50.956;5.320;2022-09-09T06:28:16;17.30;99.90
29453;DHT22;16424;50.956;5.320;2022-09-09T06:30:42;17.50;99.90
29453;DHT22;16424;50.956;5.320;2022-09-09T06:33:08;17.50;99.90
29453;DHT22;16424;50.956;5.320;2022-09-09T06:35:35;17.50;99.90
29453;DHT22;16424;50.956;5.320;2022-09-09T06:38:00;17.80;99.90
29453;DHT22;16424;50.956;5.320;2022-09-09T06:40:26;18.50;99.90
29453;DHT22;16424;50.956;5.320;2022-09-09T06:42:52;19.20;99.90
29453;DHT22;16424;50.956;5.320;2022-09-09T06:45:17;19.80;99.90
29453;DHT22;16424;50.956;5.320;2022-09-09T06:47:43;20.50;99.90
29453;DHT22;16424;50.956;5.320;2022-09-09T06:50:09;20.90;99.90
29453;DHT22;16424;50.956;5.320;2022-09-09T06:52:36;21.40;99.90
29453;DHT22;16424;50.956;5.320;2022-09-09T06:55:03;21.80;99.90
29453;DHT22;16424;50.956;5.320;2022-09-09T06:57:29;22.30;99.90
29453;DHT22;16424;50.956;5.320;2022-09-09T06:59:55;21.70;99.90
29453;DHT22;16424;50.956;5.320;2022-09-09T07:02:20;21.20;99.90
29453;DHT22;16424;50.956;5.320;2022-09-09T07:04:47;20.80;99.90
29453;DHT22;16424;50.956;5.320;2022-09-09T07:07:12;20.30;99.90
29453;DHT22;16424;50.956;5.320;2022-09-09T07:09:40;20.10;99.90
29453;DHT22;16424;50.956;5.320;2022-09-09T07:12:06;19.70;99.90
29453;DHT22;16424;50.956;5.320;2022-09-09T07:14:32;19.10;99.90
29453;DHT22;16424;50.956;5.320;2022-09-09T07:16:59;19.10;99.90
29453;DHT22;16424;50.956;5.320;2022-09-09T07:19:26;18.80;99.90
29453;DHT22;16424;50.956;5.320;2022-09-09T07:21:51;18.70;99.90
29453;DHT22;16424;50.956;5.320;2022-09-09T07:24:17;18.70;99.90
29453;DHT22;16424;50.956;5.320;2022-09-09T07:26:42;18.50;99.90
29453;DHT22;16424;50.956;5.320;2022-09-09T07:29:09;18.60;99.90
29453;DHT22;16424;50.956;5.320;2022-09-09T07:31:37;18.90;99.90
29453;DHT22;16424;50.956;5.320;2022-09-09T07:34:04;19.00;99.90
29453;DHT22;16424;50.956;5.320;2022-09-09T07:36:33;19.00;99.90
29453;DHT22;16424;50.956;5.320;2022-09-09T07:39:04;19.00;99.90
29453;DHT22;16424;50.956;5.320;2022-09-09T07:41:33;19.50;99.90
29453;DHT22;16424;50.956;5.320;2022-09-09T07:44:03;20.00;99.90
29453;DHT22;16424;50.956;5.320;2022-09-09T07:46:29;20.10;99.90
29453;DHT22;16424;50.956;5.320;2022-09-09T07:48:56;19.80;99.90
29453;DHT22;16424;50.956;5.320;2022-09-09T07:51:28;19.50;99.90
29453;DHT22;16424;50.956;5.320;2022-09-09T07:53:57;19.40;99.90
29453;DHT22;16424;50.956;5.320;2022-09-09T07:56:24;19.30;99.90
29453;DHT22;16424;50.956;5.320;2022-09-09T07:58:51;18.90;99.90
29453;DHT22;16424;50.956;5.320;2022-09-09T08:01:19;18.80;99.90
29453;DHT22;16424;50.956;5.320;2022-09-09T08:03:46;18.70;99.90
29453;DHT22;16424;50.956;5.320;2022-09-09T08:06:13;18.80;99.90
29453;DHT22;16424;50.956;5.320;2022-09-09T08:08:39;18.70;99.90
29453;DHT22;16424;50.956;5.320;2022-09-09T08:11:14;18.60;99.90
29453;DHT22;16424;50.956;5.320;2022-09-09T08:13:42;18.50;99.90
29453;DHT22;16424;50.956;5.320;2022-09-09T08:16:15;18.50;99.90
29453;DHT22;16424;50.956;5.320;2022-09-09T08:18:41;18.40;99.90
29453;DHT22;16424;50.956;5.320;2022-09-09T08:21:15;18.30;99.90
29453;DHT22;16424;50.956;5.320;2022-09-09T08:23:43;18.10;99.90
29453;DHT22;16424;50.956;5.320;2022-09-09T08:26:19;18.00;99.90
29453;DHT22;16424;50.956;5.320;2022-09-09T08:28:53;18.00;99.90
29453;DHT22;16424;50.956;5.320;2022-09-09T08:31:25;18.00;99.90
29453;DHT22;16424;50.956;5.320;2022-09-09T08:33:54;17.90;99.90
29453;DHT22;16424;50.956;5.320;2022-09-09T08:36:21;17.90;99.90
29453;DHT22;16424;50.956;5.320;2022-09-09T08:38:51;18.00;99.90
29453;DHT22;16424;50.956;5.320;2022-09-09T08:41:43;18.00;99.90
29453;DHT22;16424;50.956;5.320;2022-09-09T08:50:21;18.00;99.90
29453;DHT22;16424;50.956;5.320;2022-09-09T08:52:54;18.00;99.90
29453;DHT22;16424;50.956;5.320;2022-09-09T08:58:19;18.10;99.90
29453;DHT22;16424;50.956;5.320;2022-09-09T09:03:36;18.00;99.90
29453;DHT22;16424;50.956;5.320;2022-09-09T09:08:52;18.00;99.90
29453;DHT22;16424;50.956;5.320;2022-09-09T09:11:20;18.30;99.90
29453;DHT22;16424;50.956;5.320;2022-09-09T09:16:33;18.20;99.90
29453;DHT22;16424;50.956;5.320;2022-09-09T09:19:00;18.20;99.90
29453;DHT22;16424;50.956;5.320;2022-09-09T09:21:41;18.10;99.90
29453;DHT22;16424;50.956;5.320;2022-09-09T09:26:43;18.30;99.90
29453;DHT22;16424;50.956;5.320;2022-09-09T09:29:18;18.20;99.90
29453;DHT22;16424;50.956;5.320;2022-09-09T09:31:56;18.30;99.90
29453;DHT22;16424;50.956;5.320;2022-09-09T09:34:24;18.50;99.90
29453;DHT22;16424;50.956;5.320;2022-09-09T09:36:57;18.60;99.90
29453;DHT22;16424;50.956;5.320;2022-09-09T09:39:31;18.70;99.90
29453;DHT22;16424;50.956;5.320;2022-09-09T09:42:23;18.90;99.90
29453;DHT22;16424;50.956;5.320;2022-09-09T09:44:50;18.80;99.90
29453;DHT22;16424;50.956;5.320;2022-09-09T09:47:21;19.00;99.90
29453;DHT22;16424;50.956;5.320;2022-09-09T09:49:58;19.00;99.90
29453;DHT22;16424;50.956;5.320;2022-09-09T09:52:31;19.10;99.90
29453;DHT22;16424;50.956;5.320;2022-09-09T09:55:03;19.00;99.90
29453;DHT22;16424;50.956;5.320;2022-09-09T09:57:32;19.10;99.90
29453;DHT22;16424;50.956;5.320;2022-09-09T10:02:44;19.20;99.90
29453;DHT22;16424;50.956;5.320;2022-09-09T10:05:22;19.00;99.90
29453;DHT22;16424;50.956;5.320;2022-09-09T10:08:12;18.80;99.90
29453;DHT22;16424;50.956;5.320;2022-09-09T10:16:20;18.10;99.90
29453;DHT22;16424;50.956;5.320;2022-09-09T10:19:03;18.20;99.90
29453;DHT22;16424;50.956;5.320;2022-09-09T10:38:10;17.50;99.90
29453;DHT22;16424;50.956;5.320;2022-09-09T10:52:32;17.40;99.90
29453;DHT22;16424;50.956;5.320;2022-09-09T10:55:14;17.60;99.90
29453;DHT22;16424;50.956;5.320;2022-09-09T10:57:50;17.70;99.90
29453;DHT22;16424;50.956;5.320;2022-09-09T11:00:22;17.90;99.90
29453;DHT22;16424;50.956;5.320;2022-09-09T11:03:01;18.00;99.90
29453;DHT22;16424;50.956;5.320;2022-09-09T11:06:01;18.10;99.90
29453;DHT22;16424;50.956;5.320;2022-09-09T11:08:29;18.10;99.90
29453;DHT22;16424;50.956;5.320;2022-09-09T11:16:08;18.40;99.90
29453;DHT22;16424;50.956;5.320;2022-09-09T11:18:39;18.40;99.90
29453;DHT22;16424;50.956;5.320;2022-09-09T11:21:53;18.50;99.90
29453;DHT22;16424;50.956;5.320;2022-09-09T11:24:04;18.60;99.90
29453;DHT22;16424;50.956;5.320;2022-09-09T11:26:43;18.70;99.90
29453;DHT22;16424;50.956;5.320;2022-09-09T11:41:02;19.40;99.90
29453;DHT22;16424;50.956;5.320;2022-09-09T11:43:49;19.30;99.90
29453;DHT22;16424;50.956;5.320;2022-09-09T11:46:22;19.40;99.90
29453;DHT22;16424;50.956;5.320;2022-09-09T11:49:00;19.40;99.90
29453;DHT22;16424;50.956;5.320;2022-09-09T11:51:28;19.40;99.90
29453;DHT22;16424;50.956;5.320;2022-09-09T11:53:55;19.60;99.90
29453;DHT22;16424;50.956;5.320;2022-09-09T11:56:41;19.70;99.90
29453;DHT22;16424;50.956;5.320;2022-09-09T12:05:06;19.50;99.90
29453;DHT22;16424;50.956;5.320;2022-09-09T12:08:00;19.70;99.90
29453;DHT22;16424;50.956;5.320;2022-09-09T12:10:33;19.70;99.90
29453;DHT22;16424;50.956;5.320;2022-09-09T12:13:18;19.70;99.90
29453;DHT22;16424;50.956;5.320;2022-09-09T12:15:50;19.60;99.90
29453;DHT22;16424;50.956;5.320;2022-09-09T12:18:36;19.40;99.90
29453;DHT22;16424;50.956;5.320;2022-09-09T12:24:11;19.10;99.90
29453;DHT22;16424;50.956;5.320;2022-09-09T12:26:58;18.90;99.90
29453;DHT22;16424;50.956;5.320;2022-09-09T12:29:45;18.90;99.90
29453;DHT22;16424;50.956;5.320;2022-09-09T12:32:22;18.70;99.90
29453;DHT22;16424;50.956;5.320;2022-09-09T12:34:54;18.70;99.90
29453;DHT22;16424;50.956;5.320;2022-09-09T12:39:55;18.90;99.90
29453;DHT22;16424;50.956;5.320;2022-09-09T12:42:23;19.10;99.90
29453;DHT22;16424;50.956;5.320;2022-09-09T12:47:25;19.70;99.90
29453;DHT22;16424;50.956;5.320;2022-09-09T12:49:51;19.80;99.90
29453;DHT22;16424;50.956;5.320;2022-09-09T12:52:31;20.00;99.90
29453;DHT22;16424;50.956;5.320;2022-09-09T12:55:00;20.40;99.90
29453;DHT22;16424;50.956;5.320;2022-09-09T12:57:38;20.30;99.90
29453;DHT22;16424;50.956;5.320;2022-09-09T13:00:14;20.80;99.90
29453;DHT22;16424;50.956;5.320;2022-09-09T13:02:52;21.00;99.90
29453;DHT22;16424;50.956;5.320;2022-09-09T13:05:27;20.80;99.90
29453;DHT22;16424;50.956;5.320;2022-09-09T13:08:01;21.10;99.90
29453;DHT22;16424;50.956;5.320;2022-09-09T13:10:29;21.20;99.90
29453;DHT22;16424;50.956;5.320;2022-09-09T13:12:57;21.20;99.90
29453;DHT22;16424;50.956;5.320;2022-09-09T13:15:26;21.10;99.90
29453;DHT22;16424;50.956;5.320;2022-09-09T13:17:56;20.90;99.90
29453;DHT22;16424;50.956;5.320;2022-09-09T13:20:23;20.60;99.90
29453;DHT22;16424;50.956;5.320;2022-09-09T13:22:51;20.60;99.90
29453;DHT22;16424;50.956;5.320;2022-09-09T13:25:26;20.50;99.90
29453;DHT22;16424;50.956;5.320;2022-09-09T13:27:59;20.40;99.90
29453;DHT22;16424;50.956;5.320;2022-09-09T13:35:35;20.30;99.90
29453;DHT22;16424;50.956;5.320;2022-09-09T13:38:12;20.30;99.90
29453;DHT22;16424;50.956;5.320;2022-09-09T13:40:38;20.40;99.90
29453;DHT22;16424;50.956;5.320;2022-09-09T13:43:04;20.40;99.90
29453;DHT22;16424;50.956;5.320;2022-09-09T13:45:30;20.40;99.90
29453;DHT22;16424;50.956;5.320;2022-09-09T13:47:56;20.60;99.90
29453;DHT22;16424;50.956;5.320;2022-09-09T13:50:29;20.60;99.90
29453;DHT22;16424;50.956;5.320;2022-09-09T13:52:58;20.80;99.90
29453;DHT22;16424;50.956;5.320;2022-09-09T13:55:28;21.00;99.90
29453;DHT22;16424;50.956;5.320;2022-09-09T13:57:56;21.10;99.90
29453;DHT22;16424;50.956;5.320;2022-09-09T14:00:23;21.20;99.90
29453;DHT22;16424;50.956;5.320;2022-09-09T14:02:50;21.00;99.90
29453;DHT22;16424;50.956;5.320;2022-09-09T14:05:18;21.00;99.90
29453;DHT22;16424;50.956;5.320;2022-09-09T14:07:45;20.90;99.90
29453;DHT22;16424;50.956;5.320;2022-09-09T14:10:11;20.90;99.90
29453;DHT22;16424;50.956;5.320;2022-09-09T14:12:37;20.80;99.90
29453;DHT22;16424;50.956;5.320;2022-09-09T14:15:04;20.50;99.90
29453;DHT22;16424;50.956;5.320;2022-09-09T14:17:30;20.50;99.90
29453;DHT22;16424;50.956;5.320;2022-09-09T14:19:57;20.80;99.90
29453;DHT22;16424;50.956;5.320;2022-09-09T14:22:23;20.80;99.90
29453;DHT22;16424;50.956;5.320;2022-09-09T14:24:49;20.70;99.90
29453;DHT22;16424;50.956;5.320;2022-09-09T14:27:16;20.50;99.90
29453;DHT22;16424;50.956;5.320;2022-09-09T14:29:43;20.50;99.90
29453;DHT22;16424;50.956;5.320;2022-09-09T14:32:10;20.70;99.90
29453;DHT22;16424;50.956;5.320;2022-09-09T14:34:36;20.50;99.90
29453;DHT22;16424;50.956;5.320;2022-09-09T14:37:02;20.40;99.90
29453;DHT22;16424;50.956;5.320;2022-09-09T14:39:27;20.50;99.90
29453;DHT22;16424;50.956;5.320;2022-09-09T14:41:53;20.70;99.90
29453;DHT22;16424;50.956;5.320;2022-09-09T14:44:19;20.80;99.90
29453;DHT22;16424;50.956;5.320;2022-09-09T14:46:44;20.80;99.90
29453;DHT22;16424;50.956;5.320;2022-09-09T14:49:11;21.00;99.90
29453;DHT22;16424;50.956;5.320;2022-09-09T14:51:38;21.00;99.90
29453;DHT22;16424;50.956;5.320;2022-09-09T14:54:04;21.10;99.90
29453;DHT22;16424;50.956;5.320;2022-09-09T14:56:34;21.20;99.90
29453;DHT22;16424;50.956;5.320;2022-09-09T14:59:00;21.30;99.90
29453;DHT22;16424;50.956;5.320;2022-09-09T15:01:26;21.40;99.90
29453;DHT22;16424;50.956;5.320;2022-09-09T15:03:56;21.70;99.90
29453;DHT22;16424;50.956;5.320;2022-09-09T15:06:24;21.70;99.90
29453;DHT22;16424;50.956;5.320;2022-09-09T15:08:51;21.70;99.90
29453;DHT22;16424;50.956;5.320;2022-09-09T15:11:17;21.60;99.90
29453;DHT22;16424;50.956;5.320;2022-09-09T15:13:44;21.60;99.90
29453;DHT22;16424;50.956;5.320;2022-09-09T15:16:13;21.70;99.90
29453;DHT22;16424;50.956;5.320;2022-09-09T15:18:39;21.60;99.90
29453;DHT22;16424;50.956;5.320;2022-09-09T15:21:17;21.50;99.90
29453;DHT22;16424;50.956;5.320;2022-09-09T15:23:44;21.40;99.90
29453;DHT22;16424;50.956;5.320;2022-09-09T15:26:11;21.10;99.90
29453;DHT22;16424;50.956;5.320;2022-09-09T15:28:41;20.90;99.90
29453;DHT22;16424;50.956;5.320;2022-09-09T15:31:11;20.90;99.90
29453;DHT22;16424;50.956;5.320;2022-09-09T15:33:37;20.90;99.90
29453;DHT22;16424;50.956;5.320;2022-09-09T15:36:17;20.90;99.90
29453;DHT22;16424;50.956;5.320;2022-09-09T15:38:43;21.00;99.90
29453;DHT22;16424;50.956;5.320;2022-09-09T15:41:10;21.20;99.90
29453;DHT22;16424;50.956;5.320;2022-09-09T15:43:35;21.30;99.90
29453;DHT22;16424;50.956;5.320;2022-09-09T15:49:00;21.30;99.90
29453;DHT22;16424;50.956;5.320;2022-09-09T15:51:28;21.30;99.90
29453;DHT22;16424;50.956;5.320;2022-09-09T15:53:55;21.50;99.90
29453;DHT22;16424;50.956;5.320;2022-09-09T15:56:22;21.70;99.90
29453;DHT22;16424;50.956;5.320;2022-09-09T15:58:48;21.60;99.90
29453;DHT22;16424;50.956;5.320;2022-09-09T16:01:13;21.60;99.90
29453;DHT22;16424;50.956;5.320;2022-09-09T16:03:41;21.70;99.90
29453;DHT22;16424;50.956;5.320;2022-09-09T16:06:08;21.70;99.90
29453;DHT22;16424;50.956;5.320;2022-09-09T16:08:37;21.40;99.90
29453;DHT22;16424;50.956;5.320;2022-09-09T16:11:15;21.40;99.90
29453;DHT22;16424;50.956;5.320;2022-09-09T16:13:42;21.20;99.90
29453;DHT22;16424;50.956;5.320;2022-09-09T16:16:11;21.10;99.90
29453;DHT22;16424;50.956;5.320;2022-09-09T16:18:42;21.00;99.90
29453;DHT22;16424;50.956;5.320;2022-09-09T16:21:12;21.00;99.90
29453;DHT22;16424;50.956;5.320;2022-09-09T16:23:38;21.10;99.90
29453;DHT22;16424;50.956;5.320;2022-09-09T16:26:04;21.00;99.90
29453;DHT22;16424;50.956;5.320;2022-09-09T16:28:30;20.90;99.90
29453;DHT22;16424;50.956;5.320;2022-09-09T16:30:56;20.80;99.90
29453;DHT22;16424;50.956;5.320;2022-09-09T16:33:23;20.70;99.90
29453;DHT22;16424;50.956;5.320;2022-09-09T16:35:49;20.80;99.90
29453;DHT22;16424;50.956;5.320;2022-09-09T16:38:15;20.80;99.90
29453;DHT22;16424;50.956;5.320;2022-09-09T16:40:41;20.70;99.90
29453;DHT22;16424;50.956;5.320;2022-09-09T16:43:07;20.50;99.90
29453;DHT22;16424;50.956;5.320;2022-09-09T16:45:44;20.40;99.90
29453;DHT22;16424;50.956;5.320;2022-09-09T16:48:11;20.20;99.90
29453;DHT22;16424;50.956;5.320;2022-09-09T16:50:37;20.10;99.90
29453;DHT22;16424;50.956;5.320;2022-09-09T16:53:04;20.00;99.90
29453;DHT22;16424;50.956;5.320;2022-09-09T16:55:37;20.00;99.90
29453;DHT22;16424;50.956;5.320;2022-09-09T16:58:03;20.00;99.90
29453;DHT22;16424;50.956;5.320;2022-09-09T17:00:29;19.90;99.90
29453;DHT22;16424;50.956;5.320;2022-09-09T17:02:55;19.90;99.90
29453;DHT22;16424;50.956;5.320;2022-09-09T17:05:20;20.10;99.90
29453;DHT22;16424;50.956;5.320;2022-09-09T17:07:46;20.00;99.90
29453;DHT22;16424;50.956;5.320;2022-09-09T17:10:12;19.90;99.90
29453;DHT22;16424;50.956;5.320;2022-09-09T17:12:39;19.80;99.90
29453;DHT22;16424;50.956;5.320;2022-09-09T17:15:06;19.80;99.90
29453;DHT22;16424;50.956;5.320;2022-09-09T17:17:31;19.70;99.90
29453;DHT22;16424;50.956;5.320;2022-09-09T17:19:57;19.80;99.90
29453;DHT22;16424;50.956;5.320;2022-09-09T17:22:23;19.90;99.90
29453;DHT22;16424;50.956;5.320;2022-09-09T17:24:49;20.00;99.90
29453;DHT22;16424;50.956;5.320;2022-09-09T17:27:14;19.90;99.90
29453;DHT22;16424;50.956;5.320;2022-09-09T17:29:40;19.90;99.90
29453;DHT22;16424;50.956;5.320;2022-09-09T17:32:06;19.90;99.90
29453;DHT22;16424;50.956;5.320;2022-09-09T17:34:33;19.70;99.90
29453;DHT22;16424;50.956;5.320;2022-09-09T17:36:59;19.70;99.90
29453;DHT22;16424;50.956;5.320;2022-09-09T17:39:24;19.70;99.90
29453;DHT22;16424;50.956;5.320;2022-09-09T17:41:50;19.70;99.90
29453;DHT22;16424;50.956;5.320;2022-09-09T17:44:16;19.70;99.90
29453;DHT22;16424;50.956;5.320;2022-09-09T17:46:42;19.70;99.90
29453;DHT22;16424;50.956;5.320;2022-09-09T17:49:11;19.70;99.90
29453;DHT22;16424;50.956;5.320;2022-09-09T17:51:38;19.70;99.90
29453;DHT22;16424;50.956;5.320;2022-09-09T17:54:12;19.50;99.90
29453;DHT22;16424;50.956;5.320;2022-09-09T17:56:39;19.50;99.90
29453;DHT22;16424;50.956;5.320;2022-09-09T17:59:08;19.30;99.90
29453;DHT22;16424;50.956;5.320;2022-09-09T18:01:37;19.40;99.90
29453;DHT22;16424;50.956;5.320;2022-09-09T18:04:05;19.50;99.90
29453;DHT22;16424;50.956;5.320;2022-09-09T18:07:06;19.40;99.90
29453;DHT22;16424;50.956;5.320;2022-09-09T18:09:25;19.20;99.90